Time;durP1;ratioP1;P1;durP2;ratioP2;P2;SDS_P1;SDS_P2;PMS_P1;PMS_P2;Temp;Humidity;BMP_temperature;BMP_pressure;BME280_temperature;BME280_humidity;BME280_pressure;Samples;Min_cycle;Max_cycle;Signal;HPM_P1;HPM_P2
2023/04/23 00:01:47;;;;;;;59.50;28.90;;;;;;;8.93;67.78;98195.42;105252;1253;98100;-65
2023/04/23 00:04:17;;;;;;;52.80;28.60;;;;;;;8.81;67.82;98201.18;104943;1261;99413;-64
2023/04/23 00:06:46;;;;;;;;;;;;;;;8.71;67.85;98197.94;105015;1261;107766;-64
2023/04/23 00:09:15;;;;;;;55.10;28.90;;;;;;;8.65;67.57;98197.61;105259;1257;97913;-64
2023/04/23 00:11:42;;;;;;;56.90;29.50;;;;;;;8.63;67.71;98201.10;105286;1256;97989;-64
2023/04/23 00:14:12;;;;;;;50.30;29.00;;;;;;;8.63;67.38;98200.27;105264;1265;97908;-64
2023/04/23 00:16:47;;;;;;;62.00;29.80;;;;;;;8.65;67.44;98197.49;105302;1257;99014;-64
2023/04/23 00:19:24;;;;;;;54.90;28.20;;;;;;;8.67;67.49;98197.49;105230;1254;108747;-64
2023/04/23 00:22:02;;;;;;;53.70;28.50;;;;;;;8.69;67.66;98195.81;105202;1259;97885;-64
2023/04/23 00:24:41;;;;;;;50.10;27.30;;;;;;;8.72;67.27;98196.73;104919;1264;99585;-64
2023/04/23 00:27:08;;;;;;;51.20;27.10;;;;;;;8.75;67.02;98194.14;105238;1267;112162;-64
2023/04/23 00:29:35;;;;;;;48.40;26.90;;;;;;;8.76;67.39;98189.79;105028;1267;97889;-65
2023/04/23 00:32:03;;;;;;;50.80;27.10;;;;;;;8.79;67.52;98190.60;105172;1256;97929;-65
2023/04/23 00:34:31;;;;;;;45.50;26.50;;;;;;;8.78;67.34;98186.41;105283;1254;97899;-65
2023/04/23 00:36:58;;;;;;;46.10;25.60;;;;;;;8.68;67.88;98186.71;105215;1256;98009;-64
2023/04/23 00:39:25;;;;;;;50.70;26.20;;;;;;;8.60;68.16;98180.91;105238;1257;97905;-64
2023/04/23 00:41:51;;;;;;;46.70;25.60;;;;;;;8.52;68.41;98180.58;105206;1268;99287;-64
2023/04/23 00:44:19;;;;;;;43.50;26.50;;;;;;;8.51;68.45;98182.46;105197;1267;98431;-64
2023/04/23 00:46:46;;;;;;;51.50;25.80;;;;;;;8.53;68.15;98179.29;105105;1254;98066;-64
2023/04/23 00:49:14;;;;;;;45.80;26.40;;;;;;;8.53;68.33;98184.77;105223;1256;97996;-64
2023/04/23 00:51:41;;;;;;;48.30;26.40;;;;;;;8.49;68.48;98183.63;105195;1253;97972;-64
2023/04/23 00:54:08;;;;;;;48.50;25.10;;;;;;;8.39;68.83;98181.29;105172;1256;97913;-65
2023/04/23 00:56:36;;;;;;;43.20;25.10;;;;;;;8.27;69.19;98181.95;105216;1257;98004;-65
2023/04/23 00:59:03;;;;;;;48.30;25.30;;;;;;;8.21;69.38;98185.05;105096;1256;97966;-63
2023/04/23 01:01:32;;;;;;;45.70;25.30;;;;;;;8.15;69.58;98183.27;105167;1257;97896;-65
2023/04/23 01:03:59;;;;;;;44.00;25.90;;;;;;;8.06;70.33;98186.86;105214;1256;97914;-65
2023/04/23 01:06:27;;;;;;;42.70;25.50;;;;;;;7.98;69.92;98188.10;105039;1268;97929;-66
2023/04/23 01:08:55;;;;;;;44.90;25.80;;;;;;;7.93;70.48;98185.25;105267;1256;98568;-64
2023/04/23 01:11:22;;;;;;;40.50;23.90;;;;;;;7.88;70.61;98185.08;105249;1267;99279;-65
2023/04/23 01:13:49;;;;;;;47.00;25.60;;;;;;;7.85;70.61;98186.30;105225;1253;97929;-65
2023/04/23 01:16:16;;;;;;;43.70;23.50;;;;;;;7.84;70.69;98186.17;105247;1254;97877;-65
2023/04/23 01:18:43;;;;;;;39.60;23.50;;;;;;;7.84;70.60;98184.53;105230;1275;99074;-65
2023/04/23 01:21:13;;;;;;;40.60;23.30;;;;;;;7.86;70.72;98188.41;105230;1254;99186;-65
2023/04/23 01:23:48;;;;;;;38.60;23.00;;;;;;;7.88;70.43;98186.94;105275;1256;99221;-65
2023/04/23 01:26:19;;;;;;;42.90;22.20;;;;;;;7.91;70.59;98182.83;104923;1261;99181;-65
2023/04/23 01:28:56;;;;;;;43.70;24.00;;;;;;;7.85;70.80;98186.02;105057;1261;111877;-65
2023/04/23 01:31:28;;;;;;;42.00;23.80;;;;;;;7.81;70.67;98185.30;105216;1256;99321;-65
2023/04/23 01:34:02;;;;;;;51.60;26.60;;;;;;;7.78;70.47;98184.31;105186;1257;108735;-65
2023/04/23 01:36:37;;;;;;;48.60;27.00;;;;;;;7.76;70.41;98185.16;104752;1261;97964;-65
2023/04/23 01:39:04;;;;;;;58.80;27.70;;;;;;;7.73;70.48;98185.64;105114;1256;98348;-65
2023/04/23 01:41:31;;;;;;;44.30;24.60;;;;;;;7.68;70.63;98186.51;105231;1254;97828;-65
2023/04/23 01:43:59;;;;;;;42.90;23.10;;;;;;;7.61;71.12;98182.77;105283;1256;99298;-65
2023/04/23 01:46:27;;;;;;;44.20;24.70;;;;;;;7.52;71.44;98184.77;105237;1256;97875;-65
2023/04/23 01:48:54;;;;;;;51.10;24.40;;;;;;;7.46;71.54;98185.39;105062;1256;97959;-65
2023/04/23 01:51:22;;;;;;;51.70;26.40;;;;;;;7.40;71.31;98183.34;105264;1252;97969;-65
2023/04/23 01:53:49;;;;;;;46.60;25.40;;;;;;;7.35;71.23;98178.14;105204;1256;112249;-65
2023/04/23 01:56:21;;;;;;;48.70;24.50;;;;;;;7.34;71.19;98180.45;105268;1257;97983;-65
2023/04/23 01:58:56;;;;;;;46.50;24.30;;;;;;;7.33;71.35;98177.85;105243;1268;108459;-65
2023/04/23 02:01:48;;;;;;;48.20;24.90;;;;;;;7.33;71.69;98175.08;105057;1259;98008;-65
2023/04/23 02:04:19;;;;;;;45.20;24.40;;;;;;;7.32;71.41;98175.10;105261;1258;98318;-65
2023/04/23 02:06:55;;;;;;;53.10;26.00;;;;;;;7.34;71.48;98174.01;105021;1266;110934;-65
2023/04/23 02:09:28;;;;;;;47.10;25.20;;;;;;;7.39;71.49;98176.96;105193;1256;98205;-65
2023/04/23 02:12:01;;;;;;;50.30;25.70;;;;;;;7.41;71.41;98179.21;105057;1257;108108;-65
2023/04/23 02:14:37;;;;;;;51.00;26.30;;;;;;;7.44;71.54;98171.52;105269;1256;97886;-66
2023/04/23 02:17:05;;;;;;;48.70;26.20;;;;;;;7.50;71.20;98174.83;105059;1258;99097;-65
2023/04/23 02:19:34;;;;;;;57.70;28.40;;;;;;;7.44;71.22;98172.51;104996;1260;111774;-65
2023/04/23 02:22:01;;;;;;;43.50;25.50;;;;;;;7.29;72.19;98172.25;105280;1257;99296;-65
2023/04/23 02:24:28;;;;;;;46.50;25.20;;;;;;;7.16;72.72;98166.69;105125;1258;99197;-66
2023/04/23 02:26:56;;;;;;;44.10;24.80;;;;;;;7.06;72.84;98163.56;105263;1256;99192;-65
2023/04/23 02:29:24;;;;;;;43.40;24.20;;;;;;;6.99;72.56;98163.02;105275;1253;97807;-67
2023/04/23 02:31:52;;;;;;;50.40;26.60;;;;;;;6.95;73.09;98161.16;105169;1267;110705;-65
2023/04/23 02:34:20;;;;;;;50.00;28.90;;;;;;;6.91;73.20;98156.92;105256;1256;99275;-65
2023/04/23 02:36:48;;;;;;;45.20;25.50;;;;;;;6.93;73.09;98156.87;105092;1254;108603;-65
2023/04/23 02:39:15;;;;;;;47.00;25.00;;;;;;;6.97;73.17;98154.96;105083;1259;98070;-65
2023/04/23 02:41:43;;;;;;;46.30;25.50;;;;;;;6.98;73.00;98154.50;105038;1259;99744;-67
2023/04/23 02:44:11;;;;;;;48.30;26.00;;;;;;;6.98;72.71;98148.17;105205;1252;112419;-65
2023/04/23 02:46:39;;;;;;;41.70;24.80;;;;;;;6.97;73.54;98151.15;105237;1267;99198;-65
2023/04/23 02:49:06;;;;;;;65.00;32.80;;;;;;;6.94;73.30;98149.95;105264;1258;108354;-65
2023/04/23 02:51:33;;;;;;;74.00;35.50;;;;;;;7.01;73.33;98154.82;105192;1267;97900;-65
2023/04/23 02:54:02;;;;;;;67.60;34.10;;;;;;;7.12;73.44;98156.36;105191;1257;97977;-65
2023/04/23 02:56:29;;;;;;;86.10;43.30;;;;;;;7.14;73.29;98156.38;105181;1256;111728;-66
2023/04/23 02:58:56;;;;;;;74.80;38.70;;;;;;;7.12;73.33;98156.13;105009;1258;97895;-66
2023/04/23 03:01:23;;;;;;;54.30;29.10;;;;;;;7.14;72.88;98154.30;105185;1268;97983;-67
2023/04/23 03:03:50;;;;;;;45.60;24.30;;;;;;;7.13;73.13;98151.48;105300;1256;97906;-66
2023/04/23 03:06:18;;;;;;;44.90;23.90;;;;;;;7.15;72.89;98154.40;105258;1256;98553;-65
2023/04/23 03:08:45;;;;;;;49.60;25.70;;;;;;;7.14;73.20;98154.69;105225;1254;97935;-66
2023/04/23 03:11:11;;;;;;;45.00;24.00;;;;;;;7.09;73.03;98156.30;105276;1256;97979;-67
2023/04/23 03:13:38;;;;;;;44.00;23.10;;;;;;;7.08;73.31;98154.00;105272;1256;97913;-67
2023/04/23 03:16:06;;;;;;;43.60;23.90;;;;;;;7.05;73.40;98153.71;105263;1254;97874;-65
2023/04/23 03:18:33;;;;;;;43.90;24.80;;;;;;;7.00;73.52;98151.66;105051;1260;98842;-65
2023/04/23 03:21:00;;;;;;;46.60;25.20;;;;;;;6.95;73.22;98148.56;105263;1256;97909;-65
2023/04/23 03:23:27;;;;;;;53.70;27.00;;;;;;;6.90;73.46;98148.62;105244;1256;97892;-65
2023/04/23 03:25:53;;;;;;;47.70;25.50;;;;;;;6.86;73.41;98149.13;105246;1272;106988;-65
2023/04/23 03:28:20;;;;;;;53.80;27.20;;;;;;;6.84;73.41;98153.46;105262;1256;97905;-64
2023/04/23 03:30:48;;;;;;;52.70;26.50;;;;;;;6.78;73.49;98149.54;105262;1257;99081;-64
2023/04/23 03:33:15;;;;;;;51.30;26.00;;;;;;;6.74;73.81;98151.02;105306;1253;99201;-65
2023/04/23 03:35:42;;;;;;;47.10;24.50;;;;;;;6.75;73.63;98149.48;105298;1257;97895;-66
2023/04/23 03:38:09;;;;;;;45.20;24.80;;;;;;;6.77;73.91;98150.27;105303;1256;97918;-66
2023/04/23 03:40:36;;;;;;;49.80;24.60;;;;;;;6.80;73.69;98150.36;105315;1256;112083;-64
2023/04/23 03:43:04;;;;;;;45.30;24.10;;;;;;;6.81;73.87;98148.98;105029;1260;97927;-65
2023/04/23 03:45:31;;;;;;;54.70;30.90;;;;;;;6.81;73.96;98149.48;105116;1267;97986;-65
2023/04/23 03:47:58;;;;;;;65.80;37.60;;;;;;;6.85;74.44;98152.29;105254;1256;97944;-66
2023/04/23 03:50:25;;;;;;;70.50;39.80;;;;;;;6.88;74.35;98150.66;105152;1256;97975;-67
2023/04/23 03:52:52;;;;;;;55.30;29.50;;;;;;;6.90;74.18;98148.17;105215;1253;97928;-65
2023/04/23 03:55:19;;;;;;;49.90;28.90;;;;;;;6.93;74.21;98153.12;105256;1256;97913;-65
2023/04/23 03:57:47;;;;;;;50.00;29.80;;;;;;;6.93;74.04;98151.48;105295;1267;97940;-66
2023/04/23 04:00:14;;;;;;;44.10;25.40;;;;;;;6.90;74.11;98151.61;105219;1258;98007;-66
2023/04/23 04:02:41;;;;;;;44.60;23.20;;;;;;;6.84;74.13;98152.80;105290;1256;99113;-66
2023/04/23 04:05:11;;;;;;;41.10;23.80;;;;;;;6.83;74.58;98155.50;105355;1264;98524;-67
2023/04/23 04:07:39;;;;;;;42.20;23.60;;;;;;;6.79;74.42;98155.52;105072;1262;99235;-66
2023/04/23 04:10:07;;;;;;;40.70;23.60;;;;;;;6.78;74.76;98155.30;105087;1259;107646;-66
2023/04/23 04:12:35;;;;;;;42.20;24.10;;;;;;;6.79;75.03;98150.94;105233;1256;97950;-65
2023/04/23 04:15:03;;;;;;;40.70;21.50;;;;;;;6.86;75.41;98156.75;105247;1272;98674;-65
2023/04/23 04:17:30;;;;;;;36.10;21.70;;;;;;;6.95;75.15;98160.16;104984;1261;110791;-66
2023/04/23 04:19:57;;;;;;;39.70;22.90;;;;;;;7.02;74.93;98159.65;105243;1266;97902;-65
2023/04/23 04:22:24;;;;;;;36.00;21.10;;;;;;;7.11;75.38;98156.38;105232;1256;99190;-65
2023/04/23 04:24:51;;;;;;;33.30;20.80;;;;;;;7.24;74.82;98160.80;105174;1253;97912;-65
2023/04/23 04:27:18;;;;;;;34.40;20.20;;;;;;;7.34;74.80;98164.20;105271;1256;97908;-65
2023/04/23 04:29:45;;;;;;;38.10;23.20;;;;;;;7.42;74.64;98162.80;105291;1256;97868;-65
2023/04/23 04:32:12;;;;;;;41.70;22.50;;;;;;;7.52;74.85;98161.42;105297;1256;97925;-65
2023/04/23 04:34:39;;;;;;;34.90;21.20;;;;;;;7.66;74.45;98161.95;104937;1275;97993;-65
2023/04/23 04:37:08;;;;;;;35.90;19.50;;;;;;;7.75;74.54;98164.20;105257;1254;97969;-66
2023/04/23 04:39:36;;;;;;;34.70;20.50;;;;;;;7.74;74.39;98164.00;105304;1257;111119;-66
2023/04/23 04:42:05;;;;;;;35.90;19.10;;;;;;;7.73;74.83;98166.72;105167;1256;98890;-66
2023/04/23 04:44:32;;;;;;;30.90;18.30;;;;;;;7.76;73.99;98170.34;104988;1260;107692;-66
2023/04/23 04:46:59;;;;;;;32.50;18.50;;;;;;;7.76;73.49;98166.69;105276;1253;99208;-66
2023/04/23 04:49:26;;;;;;;35.10;21.10;;;;;;;7.82;73.62;98164.26;105256;1256;99190;-66
2023/04/23 04:51:53;;;;;;;36.00;21.30;;;;;;;7.92;73.52;98164.22;105275;1253;99044;-66
2023/04/23 04:54:20;;;;;;;36.50;20.90;;;;;;;8.07;73.63;98163.11;105189;1267;98804;-64
2023/04/23 04:56:47;;;;;;;39.30;22.30;;;;;;;8.21;73.43;98161.09;105121;1256;97918;-67
2023/04/23 04:59:14;;;;;;;36.20;20.90;;;;;;;8.39;73.75;98161.80;105257;1256;98049;-66
2023/04/23 05:01:42;;;;;;;33.10;19.40;;;;;;;8.57;73.53;98162.82;105231;1256;97843;-66
2023/04/23 05:04:10;;;;;;;34.80;19.80;;;;;;;8.74;72.99;98161.16;105279;1252;97953;-67
2023/04/23 05:06:37;;;;;;;35.80;21.30;;;;;;;8.88;72.41;98160.20;105305;1256;98393;-66
2023/04/23 05:09:04;;;;;;;34.00;19.40;;;;;;;8.99;72.19;98165.26;105150;1253;98557;-66
2023/04/23 05:11:31;;;;;;;33.30;19.50;;;;;;;9.10;71.93;98164.23;105209;1257;99194;-68
2023/04/23 05:13:58;;;;;;;32.70;18.70;;;;;;;9.23;71.43;98160.48;105200;1253;97912;-67
2023/04/23 05:16:25;;;;;;;34.10;19.30;;;;;;;9.35;71.13;98158.13;105256;1254;99459;-66
2023/04/23 05:18:52;;;;;;;35.70;19.20;;;;;;;9.46;70.65;98160.23;105158;1269;97915;-66
2023/04/23 05:21:19;;;;;;;28.60;17.50;;;;;;;9.54;70.28;98158.63;105101;1257;97960;-66
2023/04/23 05:23:46;;;;;;;33.90;19.20;;;;;;;9.61;70.27;98156.61;105250;1256;97883;-64
2023/04/23 05:26:13;;;;;;;31.70;18.60;;;;;;;9.75;70.21;98153.30;105132;1256;98000;-65
2023/04/23 05:28:40;;;;;;;29.90;17.70;;;;;;;9.91;69.96;98154.05;105090;1253;97900;-65
2023/04/23 05:31:10;;;;;;;28.70;17.10;;;;;;;10.07;69.18;98157.89;105263;1256;97897;-65
2023/04/23 05:33:51;;;;;;;32.10;17.40;;;;;;;10.19;68.60;98157.38;105213;1253;98138;-65
2023/04/23 05:36:18;;;;;;;26.90;15.70;;;;;;;10.29;68.80;98156.48;105159;1253;112091;-66
2023/04/23 05:38:46;;;;;;;29.50;17.90;;;;;;;10.41;68.53;98158.00;105219;1256;97935;-65
2023/04/23 05:41:14;;;;;;;28.10;17.70;;;;;;;10.55;68.26;98157.30;105165;1256;97918;-65
2023/04/23 05:43:42;;;;;;;27.10;17.00;;;;;;;10.65;67.75;98157.34;105084;1264;97904;-65
2023/04/23 05:46:08;;;;;;;27.90;18.00;;;;;;;10.75;67.37;98157.73;105276;1256;98004;-65
2023/04/23 05:48:35;;;;;;;26.10;15.90;;;;;;;10.86;67.06;98158.80;105001;1254;97945;-65
2023/04/23 05:51:03;;;;;;;28.30;17.10;;;;;;;10.95;67.15;98161.98;105034;1256;98008;-66
2023/04/23 05:53:32;;;;;;;27.90;16.90;;;;;;;11.11;67.44;98157.48;105166;1253;97964;-64
2023/04/23 05:56:05;;;;;;;24.90;15.10;;;;;;;11.38;66.95;98155.87;105221;1269;98003;-65
2023/04/23 05:58:45;;;;;;;26.40;15.30;;;;;;;11.58;65.79;98159.63;104959;1264;99081;-65
2023/04/23 06:01:14;;;;;;;26.00;15.40;;;;;;;11.75;65.66;98158.35;104890;1260;111473;-66
2023/04/23 06:03:44;;;;;;;26.50;15.30;;;;;;;11.94;65.48;98161.41;105020;1258;98033;-65
2023/04/23 06:06:12;;;;;;;21.30;14.10;;;;;;;12.20;65.15;98159.02;105278;1253;108513;-67
2023/04/23 06:08:40;;;;;;;23.60;12.70;;;;;;;12.46;63.93;98157.83;105141;1256;99213;-64
2023/04/23 06:11:08;;;;;;;20.80;13.40;;;;;;;12.64;63.43;98161.71;105274;1257;97901;-65
2023/04/23 06:13:39;;;;;;;21.60;12.80;;;;;;;12.87;63.21;98160.58;105267;1256;112184;-66
2023/04/23 06:16:09;;;;;;;19.30;12.30;;;;;;;13.08;62.19;98160.01;105056;1253;98184;-66
2023/04/23 06:18:37;;;;;;;21.10;14.00;;;;;;;13.26;62.70;98156.84;105237;1256;97968;-66
2023/04/23 06:21:05;;;;;;;20.40;12.50;;;;;;;13.53;62.18;98154.36;105268;1267;99218;-66
2023/04/23 06:23:34;;;;;;;20.30;12.70;;;;;;;13.71;61.35;98157.66;105268;1260;99208;-65
2023/04/23 06:26:03;;;;;;;19.80;13.10;;;;;;;13.94;61.41;98155.59;105114;1257;112370;-65
2023/04/23 06:28:30;;;;;;;16.40;10.60;;;;;;;14.24;60.38;98157.23;105289;1266;99309;-66
2023/04/23 06:30:58;;;;;;;12.60;9.50;;;;;;;14.49;58.50;98152.61;105122;1257;97969;-65
2023/04/23 06:33:25;;;;;;;15.20;8.90;;;;;;;14.70;57.53;98157.16;105159;1253;97999;-67
2023/04/23 06:35:52;;;;;;;16.40;9.90;;;;;;;14.86;56.31;98151.86;105135;1256;98037;-70
2023/04/23 06:38:21;;;;;;;12.60;8.60;;;;;;;15.02;55.41;98151.05;105259;1256;99218;-65
2023/04/23 06:40:49;;;;;;;14.60;9.10;;;;;;;15.14;55.19;98153.65;105173;1253;99496;-67
2023/04/23 06:43:16;;;;;;;13.30;8.80;;;;;;;15.29;55.03;98153.05;105274;1256;97916;-66
2023/04/23 06:45:43;;;;;;;16.10;9.40;;;;;;;15.48;54.79;98149.69;105233;1256;99224;-67
2023/04/23 06:48:10;;;;;;;15.40;9.30;;;;;;;15.63;54.74;98150.98;105242;1253;99214;-66
2023/04/23 06:50:38;;;;;;;15.20;9.30;;;;;;;15.82;54.62;98151.22;105220;1258;97954;-66
2023/04/23 06:53:05;;;;;;;12.60;8.60;;;;;;;16.02;54.27;98150.64;105292;1253;97890;-66
2023/04/23 06:55:32;;;;;;;14.00;8.40;;;;;;;16.18;53.64;98149.70;105212;1267;97881;-66
2023/04/23 06:58:00;;;;;;;12.00;7.50;;;;;;;16.35;52.91;98146.86;104967;1256;455587;-66
2023/04/23 07:00:27;;;;;;;13.10;7.60;;;;;;;16.54;52.59;98145.42;105267;1253;98300;-67
2023/04/23 07:02:54;;;;;;;11.80;7.80;;;;;;;16.71;51.54;98144.14;105060;1258;97936;-66
2023/04/23 07:05:22;;;;;;;10.50;8.80;;;;;;;16.83;51.76;98144.73;105071;1256;99185;-66
2023/04/23 07:07:49;;;;;;;13.90;8.60;;;;;;;17.01;51.62;98148.52;105106;1256;99217;-66
2023/04/23 07:10:16;;;;;;;13.40;8.50;;;;;;;17.15;51.57;98144.34;105195;1267;97895;-66
2023/04/23 07:12:44;;;;;;;13.10;9.20;;;;;;;17.33;50.83;98145.56;104647;1262;99220;-66
2023/04/23 07:15:11;;;;;;;11.80;8.90;;;;;;;17.52;51.29;98145.14;104586;1259;99314;-65
2023/04/23 07:17:38;;;;;;;14.00;9.50;;;;;;;17.65;50.92;98138.21;104466;1274;99256;-66
2023/04/23 07:20:07;;;;;;;15.00;8.30;;;;;;;17.87;50.43;98137.54;104572;1259;97978;-66
2023/04/23 07:22:35;;;;;;;14.50;10.00;;;;;;;18.01;50.60;98136.77;104575;1259;97945;-66
2023/04/23 07:25:03;;;;;;;11.90;8.00;;;;;;;18.31;51.29;98135.16;104456;1264;98115;-66
2023/04/23 07:27:30;;;;;;;14.80;9.10;;;;;;;18.55;49.66;98136.44;104546;1274;112096;-67
2023/04/23 07:29:57;;;;;;;16.90;9.50;;;;;;;18.77;51.11;98130.80;104454;1264;98348;-66
2023/04/23 07:32:26;;;;;;;11.60;8.40;;;;;;;19.02;50.18;98125.14;104978;1258;97952;-66
2023/04/23 07:34:55;;;;;;;10.20;7.50;;;;;;;19.19;47.86;98125.14;104988;1257;99175;-65
2023/04/23 07:37:22;;;;;;;10.10;7.70;;;;;;;19.28;48.78;98121.48;105040;1255;98165;-66
2023/04/23 07:39:49;;;;;;;8.00;4.90;;;;;;;19.53;45.64;98121.79;105074;1269;97862;-66
2023/04/23 07:42:16;;;;;;;6.80;4.70;;;;;;;19.57;44.44;98124.91;105113;1256;97934;-66
2023/04/23 07:44:43;;;;;;;5.50;3.80;;;;;;;19.84;43.33;98125.69;105086;1256;98029;-67
2023/04/23 07:47:10;;;;;;;6.30;4.10;;;;;;;19.95;41.92;98121.29;105122;1256;97941;-66
2023/04/23 07:49:37;;;;;;;5.20;3.30;;;;;;;20.16;39.99;98119.66;105117;1256;98050;-66
2023/04/23 07:52:05;;;;;;;4.60;3.90;;;;;;;20.20;38.99;98117.85;105005;1260;97876;-66
2023/04/23 07:54:32;;;;;;;4.70;3.40;;;;;;;20.34;37.99;98118.91;105169;1256;98483;-66
2023/04/23 07:57:00;;;;;;;3.60;3.20;;;;;;;20.47;38.59;98114.25;105022;1256;99190;-69
2023/04/23 07:59:28;;;;;;;4.70;3.70;;;;;;;20.66;37.41;98117.85;105260;1253;97980;-66
2023/04/23 08:01:55;;;;;;;4.90;2.90;;;;;;;20.62;35.97;98110.69;105107;1269;99243;-66
2023/04/23 08:04:22;;;;;;;6.70;4.50;;;;;;;20.69;35.41;98111.59;105059;1266;98006;-67
2023/04/23 08:06:51;;;;;;;7.60;4.60;;;;;;;20.94;36.25;98113.44;105233;1256;98431;-66
2023/04/23 08:09:18;;;;;;;4.90;3.40;;;;;;;21.33;35.98;98110.09;104792;1253;106501;-66
2023/04/23 08:11:46;;;;;;;6.80;4.50;;;;;;;21.62;33.55;98109.00;105120;1264;97925;-65
2023/04/23 08:14:14;;;;;;;5.40;4.20;;;;;;;21.74;33.52;98107.79;105028;1260;97990;-66
2023/04/23 08:16:41;;;;;;;5.70;3.50;;;;;;;21.78;33.12;98107.21;105238;1256;97878;-66
2023/04/23 08:19:09;;;;;;;4.90;2.80;;;;;;;21.93;33.77;98105.73;105159;1256;97975;-66
2023/04/23 08:21:36;;;;;;;6.10;3.50;;;;;;;22.26;33.49;98102.07;105054;1256;99324;-66
2023/04/23 08:24:08;;;;;;;4.90;3.30;;;;;;;22.55;33.12;98099.59;105260;1254;99212;-66
2023/04/23 08:26:35;;;;;;;8.00;3.30;;;;;;;22.56;30.89;98100.38;105238;1256;97906;-66
2023/04/23 08:29:04;;;;;;;4.30;3.20;;;;;;;22.45;31.57;98099.80;105096;1256;97883;-66
2023/04/23 08:31:31;;;;;;;5.00;3.00;;;;;;;22.57;32.16;98098.14;105233;1256;98689;-66
2023/04/23 08:33:59;;;;;;;3.60;3.20;;;;;;;22.77;31.95;98097.70;105245;1256;107361;-66
2023/04/23 08:36:26;;;;;;;5.00;3.50;;;;;;;22.93;31.14;98097.91;105264;1256;97898;-66
2023/04/23 08:38:53;;;;;;;4.50;3.30;;;;;;;23.06;31.41;98094.76;105291;1256;97976;-67
2023/04/23 08:41:26;;;;;;;4.50;3.30;;;;;;;23.15;30.73;98092.77;105180;1256;97878;-66
2023/04/23 08:44:16;;;;;;;5.20;3.00;;;;;;;23.29;30.76;98092.55;105255;1257;99219;-67
2023/04/23 08:46:44;;;;;;;5.30;3.40;;;;;;;23.57;30.87;98092.69;105189;1256;108466;-67
2023/04/23 08:49:17;;;;;;;3.60;2.90;;;;;;;23.90;31.08;98089.27;104885;1257;97926;-67
2023/04/23 08:51:54;;;;;;;6.50;3.20;;;;;;;24.25;30.54;98085.50;105282;1257;97838;-67
2023/04/23 08:54:28;;;;;;;4.00;3.40;;;;;;;24.48;29.17;98082.22;105037;1254;110764;-67
2023/04/23 08:56:57;;;;;;;4.80;3.10;;;;;;;24.26;28.46;98084.98;105320;1266;99111;-67
2023/04/23 08:59:30;;;;;;;5.30;3.10;;;;;;;24.14;29.00;98082.84;105305;1257;108389;-68
2023/04/23 09:02:00;;;;;;;4.50;2.70;;;;;;;24.30;29.23;98082.54;105081;1266;99224;-67
2023/04/23 09:04:28;;;;;;;4.80;2.90;;;;;;;24.66;29.20;98077.62;105167;1254;97890;-67
2023/04/23 09:06:55;;;;;;;5.40;3.00;;;;;;;25.01;29.25;98075.89;105060;1259;111447;-66
2023/04/23 09:09:23;;;;;;;4.50;3.30;;;;;;;25.29;28.16;98079.48;105290;1254;99933;-68
2023/04/23 09:11:50;;;;;;;5.30;3.10;;;;;;;25.16;27.11;98077.63;105113;1257;108171;-67
2023/04/23 09:14:24;;;;;;;5.40;3.40;;;;;;;25.27;28.84;98075.58;105005;1254;97962;-68
2023/04/23 09:16:54;;;;;;;3.10;2.80;;;;;;;25.55;29.90;98069.80;105085;1258;97873;-67
2023/04/23 09:19:26;;;;;;;4.00;3.10;;;;;;;25.54;27.20;98073.09;105065;1259;111402;-66
2023/04/23 09:21:54;;;;;;;3.40;3.10;;;;;;;25.61;27.92;98070.32;105255;1256;99286;-66
2023/04/23 09:24:22;;;;;;;4.50;2.90;;;;;;;25.83;27.09;98064.06;105053;1262;107625;-67
2023/04/23 09:26:51;;;;;;;5.20;3.10;;;;;;;25.89;26.72;98068.25;104870;1263;98603;-67
2023/04/23 09:29:22;;;;;;;3.40;2.70;;;;;;;25.93;27.17;98063.60;105269;1268;97969;-66
2023/04/23 09:32:05;;;;;;;5.80;3.10;;;;;;;26.01;26.75;98060.05;105039;1257;112559;-66
2023/04/23 09:34:35;;;;;;;4.20;3.20;;;;;;;26.10;26.43;98060.05;105135;1257;99247;-67
2023/04/23 09:37:05;;;;;;;4.90;3.20;;;;;;;26.49;26.90;98058.13;105209;1257;108980;-67
2023/04/23 09:39:34;;;;;;;4.80;2.80;;;;;;;26.94;28.66;98052.27;104978;1260;99196;-67
2023/04/23 09:42:04;;;;;;;3.80;2.80;;;;;;;27.37;27.45;98051.32;105244;1257;98845;-66
2023/04/23 09:44:32;;;;;;;4.00;2.80;;;;;;;27.72;26.70;98049.89;104837;1260;110574;-66
2023/04/23 09:47:08;;;;;;;5.20;3.00;;;;;;;27.93;25.88;98048.02;104982;1260;98630;-66
2023/04/23 09:49:46;;;;;;;3.70;2.60;;;;;;;27.99;25.68;98046.30;105012;1254;107601;-66
2023/04/23 09:52:14;;;;;;;4.30;2.60;;;;;;;27.99;23.95;98042.50;105128;1254;99233;-66
2023/04/23 09:54:42;;;;;;;4.10;2.80;;;;;;;27.81;24.04;98035.70;105015;1257;98984;-66
2023/04/23 09:57:10;;;;;;;5.60;3.60;;;;;;;27.95;24.31;98033.46;105503;1268;112136;-67
2023/04/23 09:59:37;;;;;;;6.20;3.10;;;;;;;28.03;24.59;98033.95;104991;1261;99102;-66
2023/04/23 10:02:15;;;;;;;2.80;2.50;;;;;;;27.86;23.85;98028.42;105056;1257;108822;-66
2023/04/23 10:04:43;;;;;;;4.90;3.10;;;;;;;27.90;24.71;98022.02;104931;1268;97941;-66
2023/04/23 10:07:12;;;;;;;4.00;2.70;;;;;;;28.28;25.27;98022.80;105222;1259;99126;-66
2023/04/23 10:09:42;;;;;;;4.60;2.60;;;;;;;28.54;23.66;98019.10;105173;1259;111346;-66
2023/04/23 10:12:10;;;;;;;5.10;2.60;;;;;;;28.46;23.66;98014.55;105150;1259;99152;-66
2023/04/23 10:14:41;;;;;;;4.10;2.70;;;;;;;28.37;22.71;98014.24;105201;1261;107731;-66
2023/04/23 10:17:09;;;;;;;3.70;2.40;;;;;;;28.26;23.16;98009.67;105178;1257;97888;-66
2023/04/23 10:19:39;;;;;;;2.60;2.30;;;;;;;28.40;23.80;98011.83;105185;1259;97858;-66
2023/04/23 10:22:10;;;;;;;3.40;2.80;;;;;;;28.65;23.40;98010.36;104997;1261;111837;-66
2023/04/23 10:24:54;;;;;;;4.70;2.40;;;;;;;28.81;24.74;98000.44;105152;1257;99363;-66
2023/04/23 10:27:25;;;;;;;3.00;2.50;;;;;;;29.12;23.19;98001.56;105172;1257;108639;-66
2023/04/23 10:30:13;;;;;;;4.40;2.70;;;;;;;28.92;22.90;97995.21;105032;1258;97956;-66
2023/04/23 10:32:41;;;;;;;5.80;2.60;;;;;;;29.14;24.43;97991.26;104733;1262;99742;-65
2023/04/23 10:35:09;;;;;;;2.90;2.60;;;;;;;29.24;23.90;97991.95;104789;1261;111253;-67
2023/04/23 10:37:37;;;;;;;3.00;2.60;;;;;;;29.58;23.01;97984.29;104804;1253;98188;-68
2023/04/23 10:40:12;;;;;;;4.80;2.80;;;;;;;29.75;23.07;97985.83;104764;1264;108238;-67
2023/04/23 10:42:43;;;;;;;3.40;2.70;;;;;;;29.77;22.97;97982.54;105166;1259;97890;-67
2023/04/23 10:45:16;;;;;;;3.40;2.30;;;;;;;29.35;22.28;97985.59;104999;1253;99202;-67
2023/04/23 10:47:46;;;;;;;2.70;2.50;;;;;;;28.91;22.91;97983.02;105053;1267;111234;-67
2023/04/23 10:50:24;;;;;;;3.40;2.60;;;;;;;28.92;23.83;97983.30;105190;1259;98850;-67
2023/04/23 10:52:52;;;;;;;3.00;2.30;;;;;;;28.68;23.87;97982.97;104976;1271;106906;-67
2023/04/23 10:55:27;;;;;;;4.40;2.50;;;;;;;28.39;23.89;97984.64;104896;1271;99180;-67
2023/04/23 10:58:03;;;;;;;3.50;2.50;;;;;;;28.46;24.24;97984.69;104953;1259;97845;-66
2023/04/23 11:00:46;;;;;;;6.00;2.30;;;;;;;28.68;25.43;97977.20;104965;1258;111876;-67
2023/04/23 11:03:40;;;;;;;3.70;2.40;;;;;;;29.10;23.60;97980.52;105067;1259;99270;-66
2023/04/23 11:06:16;;;;;;;4.80;2.50;;;;;;;29.28;23.61;97980.05;105160;1259;108921;-67
2023/04/23 11:08:53;;;;;;;6.20;3.80;;;;;;;28.95;23.12;97976.12;104967;1259;98891;-66
2023/04/23 11:11:41;;;;;;;3.60;2.60;;;;;;;28.50;24.93;97978.67;105235;1259;97789;-68
2023/04/23 11:14:15;;;;;;;7.70;3.30;;;;;;;28.03;25.45;97977.94;105116;1259;112282;-66
2023/04/23 11:16:42;;;;;;;4.20;2.70;;;;;;;27.76;26.64;97977.47;105104;1259;98911;-65
2023/04/23 11:19:14;;;;;;;5.00;3.20;;;;;;;27.75;27.15;97974.21;105148;1259;108977;-66
2023/04/23 11:22:11;;;;;;;3.50;2.80;;;;;;;27.98;25.91;97968.53;104570;1260;97978;-66
2023/04/23 11:24:41;;;;;;;7.20;3.50;;;;;;;28.20;26.51;97967.28;105112;1259;97971;-65
2023/04/23 11:27:14;;;;;;;4.70;2.90;;;;;;;28.30;25.09;97972.30;104797;1262;111182;-65